Time,TemperatureF,DewpointF,PressureIn,WindDirection,WindDirectionDegrees,WindSpeedMPH,WindSpeedGustMPH,Humidity,HourlyPrecipIn,Conditions,Clouds,dailyrainin,SoftwareType,DateUTC
2013-11-03 00:04:00,49.2,42.0,30.14,ENE,60,0.0,1.0,77,0.00,,,0.00,weatherlink.com 1.10,2013-11-03 04:04:00,
2013-11-03 00:19:00,48.8,42.0,30.14,SSE,147,0.0,3.0,77,0.00,,,0.00,weatherlink.com 1.10,2013-11-03 04:19:00,
2013-11-03 00:34:00,48.3,42.0,30.14,West,259,0.0,1.0,79,0.00,,,0.00,weatherlink.com 1.10,2013-11-03 04:34:00,
2013-11-03 00:49:00,47.8,42.0,30.13,ENE,68,0.0,1.0,81,0.00,,,0.00,weatherlink.com 1.10,2013-11-03 04:49:00,
2013-11-03 01:04:00,47.4,42.0,30.13,NNW,348,1.0,4.0,82,0.00,,,0.00,weatherlink.com 1.10,2013-11-03 05:04:00,
2013-11-03 01:19:00,47.4,42.0,30.13,NNW,343,0.0,2.0,80,0.00,,,0.00,weatherlink.com 1.10,2013-11-03 05:19:00,
2013-11-03 01:34:00,48.0,42.0,30.13,SSE,159,1.0,2.0,80,0.00,,,0.00,weatherlink.com 1.10,2013-11-03 05:34:00,
2013-11-03 01:49:00,48.1,42.0,30.13,WNW,285,1.0,3.0,79,0.00,,,0.00,weatherlink.com 1.10,2013-11-03 05:49:00,
2013-11-03 01:04:00,47.9,42.0,30.14,NNE,22,0.0,3.0,79,0.00,,,0.00,weatherlink.com 1.10,2013-11-03 06:04:00,
2013-11-03 01:19:00,47.3,41.0,30.14,North,357,0.0,1.0,80,0.00,,,0.00,weatherlink.com 1.10,2013-11-03 06:19:00,
2013-11-03 01:34:00,46.1,42.0,30.14,North,352,0.0,2.0,84,0.00,,,0.00,weatherlink.com 1.10,2013-11-03 06:34:00,
2013-11-03 01:49:00,45.8,41.0,30.15,North,3,1.0,5.0,84,0.00,,,0.00,weatherlink.com 1.10,2013-11-03 06:49:00,
2013-11-03 02:04:00,45.6,41.0,30.16,ESE,114,0.0,1.0,84,0.00,,,0.00,weatherlink.com 1.10,2013-11-03 07:04:00,
2013-11-03 02:19:00,44.3,41.0,30.16,ESE,114,0.0,0.0,87,0.00,,,0.00,weatherlink.com 1.10,2013-11-03 07:19:00,
2013-11-03 02:34:00,43.1,40.0,30.16,ESE,114,0.0,0.0,90,0.00,,,0.00,weatherlink.com 1.10,2013-11-03 07:34:00,
2013-11-03 02:49:00,42.3,40.0,30.16,ESE,114,0.0,0.0,91,0.00,,,0.00,weatherlink.com 1.10,2013-11-03 07:49:00,
2013-11-03 03:04:00,41.8,40.0,30.16,WSW,240,0.0,0.0,93,0.00,,,0.00,weatherlink.com 1.10,2013-11-03 08:04:00,
2013-11-03 03:19:00,42.3,41.0,30.17,North,360,0.0,0.0,93,0.00,,,0.00,weatherlink.com 1.10,2013-11-03 08:19:00,
2013-11-03 03:34:00,41.9,40.0,30.17,North,360,0.0,0.0,92,0.00,,,0.00,weatherlink.com 1.10,2013-11-03 08:34:00,
2013-11-03 03:49:00,41.3,40.0,30.18,North,360,0.0,0.0,93,0.00,,,0.00,weatherlink.com 1.10,2013-11-03 08:49:00,
2013-11-03 04:04:00,40.9,39.0,30.18,North,360,0.0,0.0,94,0.00,,,0.00,weatherlink.com 1.10,2013-11-03 09:04:00,
2013-11-03 04:19:00,40.7,39.0,30.18,North,360,0.0,0.0,94,0.00,,,0.00,weatherlink.com 1.10,2013-11-03 09:19:00,
2013-11-03 04:34:00,40.4,39.0,30.18,North,360,0.0,0.0,94,0.00,,,0.00,weatherlink.com 1.10,2013-11-03 09:34:00,
2013-11-03 04:50:00,40.2,39.0,30.19,North,360,0.0,0.0,95,0.00,,,0.00,weatherlink.com 1.10,2013-11-03 09:50:00,
2013-11-03 05:05:00,40.2,39.0,30.20,North,360,0.0,0.0,95,0.00,,,0.00,weatherlink.com 1.10,2013-11-03 10:05:00,
2013-11-03 05:20:00,40.0,39.0,30.20,North,360,0.0,0.0,96,0.00,,,0.00,weatherlink.com 1.10,2013-11-03 10:20:00,
2013-11-03 05:35:00,39.8,39.0,30.21,North,360,0.0,0.0,96,0.00,,,0.00,weatherlink.com 1.10,2013-11-03 10:35:00,
2013-11-03 05:50:00,39.7,39.0,30.21,North,360,0.0,0.0,96,0.00,,,0.00,weatherlink.com 1.10,2013-11-03 10:50:00,
2013-11-03 06:05:00,39.6,39.0,30.22,North,360,0.0,0.0,96,0.00,,,0.00,weatherlink.com 1.10,2013-11-03 11:05:00,
2013-11-03 06:20:00,39.5,39.0,30.23,North,360,0.0,0.0,96,0.00,,,0.00,weatherlink.com 1.10,2013-11-03 11:20:00,
2013-11-03 06:35:00,39.2,38.0,30.23,North,360,0.0,0.0,96,0.00,,,0.00,weatherlink.com 1.10,2013-11-03 11:35:00,
2013-11-03 06:50:00,38.9,38.0,30.23,North,360,0.0,0.0,96,0.00,,,0.00,weatherlink.com 1.10,2013-11-03 11:50:00,
2013-11-03 07:05:00,39.1,38.0,30.24,North,360,0.0,0.0,97,0.00,,,0.00,weatherlink.com 1.10,2013-11-03 12:05:00,
2013-11-03 07:20:00,38.9,38.0,30.25,North,360,0.0,0.0,97,0.00,,,0.00,weatherlink.com 1.10,2013-11-03 12:20:00,
2013-11-03 07:35:00,39.0,38.0,30.25,North,360,0.0,0.0,97,0.00,,,0.00,weatherlink.com 1.10,2013-11-03 12:35:00,
2013-11-03 07:50:00,39.4,39.0,30.26,North,360,0.0,0.0,97,0.00,,,0.00,weatherlink.com 1.10,2013-11-03 12:50:00,
2013-11-03 08:05:00,40.7,40.0,30.27,NE,41,0.0,0.0,97,0.00,,,0.00,weatherlink.com 1.10,2013-11-03 13:05:00,
2013-11-03 08:20:00,41.9,40.0,30.28,NNE,20,0.0,1.0,92,0.00,,,0.00,weatherlink.com 1.10,2013-11-03 13:20:00,
2013-11-03 08:36:00,43.5,40.0,30.28,West,265,0.0,2.0,88,0.00,,,0.00,weatherlink.com 1.10,2013-11-03 13:36:00,
2013-11-03 08:50:00,44.6,40.0,30.29,ENE,77,0.0,1.0,84,0.00,,,0.00,weatherlink.com 1.10,2013-11-03 13:50:00,
2013-11-03 09:05:00,46.2,40.0,30.29,NW,317,0.0,3.0,79,0.00,,,0.00,weatherlink.com 1.10,2013-11-03 14:05:00,
2013-11-03 09:20:00,47.2,40.0,30.29,NNW,339,0.0,3.0,76,0.00,,,0.00,weatherlink.com 1.10,2013-11-03 14:20:00,
2013-11-03 09:35:00,47.8,40.0,30.29,SSE,160,1.0,4.0,74,0.00,,,0.00,weatherlink.com 1.10,2013-11-03 14:35:00,
2013-11-03 09:50:00,48.5,41.0,30.30,WNW,294,0.0,3.0,74,0.00,,,0.00,weatherlink.com 1.10,2013-11-03 14:50:00,
2013-11-03 10:05:00,49.5,40.0,30.30,West,277,1.0,4.0,70,0.00,,,0.00,weatherlink.com 1.10,2013-11-03 15:05:00,
2013-11-03 10:20:00,50.6,40.0,30.31,NNE,21,6.0,6.0,67,0.00,,,0.00,weatherlink.com 1.10,2013-11-03 15:20:00,
2013-11-03 10:35:00,51.5,40.0,30.31,West,272,1.0,3.0,66,0.00,,,0.00,weatherlink.com 1.10,2013-11-03 15:35:00,
2013-11-03 10:50:00,52.3,40.0,30.31,North,7,1.0,4.0,64,0.00,,,0.00,weatherlink.com 1.10,2013-11-03 15:50:00,
2013-11-03 11:05:00,52.9,41.0,30.31,NNW,339,0.0,4.0,65,0.00,,,0.00,weatherlink.com 1.10,2013-11-03 16:05:00,
2013-11-03 11:20:00,53.6,40.0,30.32,ENE,78,0.0,7.0,61,0.00,,,0.00,weatherlink.com 1.10,2013-11-03 16:20:00,
2013-11-03 11:35:00,53.9,41.0,30.32,NW,310,1.0,6.0,61,0.00,,,0.00,weatherlink.com 1.10,2013-11-03 16:35:00,
2013-11-03 11:50:00,54.5,41.0,30.31,WNW,297,0.0,5.0,60,0.00,,,0.00,weatherlink.com 1.10,2013-11-03 16:50:00,
2013-11-03 12:06:00,54.4,40.0,30.31,WNW,283,1.0,4.0,59,0.00,,,0.00,weatherlink.com 1.10,2013-11-03 17:06:00,
2013-11-03 12:21:00,54.9,40.0,30.30,NE,39,0.0,4.0,58,0.00,,,0.00,weatherlink.com 1.10,2013-11-03 17:21:00,
2013-11-03 12:36:00,55.6,40.0,30.29,NNE,20,2.0,4.0,57,0.00,,,0.00,weatherlink.com 1.10,2013-11-03 17:36:00,
2013-11-03 12:51:00,55.8,39.0,30.28,NE,51,0.0,5.0,54,0.00,,,0.00,weatherlink.com 1.10,2013-11-03 17:51:00,
2013-11-03 13:06:00,56.2,40.0,30.27,North,9,0.0,7.0,54,0.00,,,0.00,weatherlink.com 1.10,2013-11-03 18:06:00,
2013-11-03 13:23:00,56.8,38.0,30.26,NNE,17,1.0,5.0,50,0.00,,,0.00,weatherlink.com 1.10,2013-11-03 18:23:00,
2013-11-03 13:36:00,57.0,39.0,30.26,NW,309,0.0,3.0,51,0.00,,,0.00,weatherlink.com 1.10,2013-11-03 18:36:00,
2013-11-03 13:51:00,57.3,39.0,30.25,NW,320,0.0,6.0,51,0.00,,,0.00,weatherlink.com 1.10,2013-11-03 18:51:00,
2013-11-03 14:06:00,58.0,39.0,30.25,NE,51,0.0,6.0,50,0.00,,,0.00,weatherlink.com 1.10,2013-11-03 19:06:00,
2013-11-03 14:21:00,58.1,39.0,30.25,WNW,289,0.0,4.0,49,0.00,,,0.00,weatherlink.com 1.10,2013-11-03 19:21:00,
2013-11-03 14:36:00,57.6,38.0,30.25,West,278,2.0,6.0,48,0.00,,,0.00,weatherlink.com 1.10,2013-11-03 19:36:00,
2013-11-03 14:51:00,58.1,38.0,30.24,ENE,75,0.0,4.0,48,0.00,,,0.00,weatherlink.com 1.10,2013-11-03 19:51:00,
2013-11-03 15:06:00,58.1,37.0,30.24,West,278,1.0,7.0,46,0.00,,,0.00,weatherlink.com 1.10,2013-11-03 20:06:00,
2013-11-03 15:21:00,58.4,38.0,30.25,West,275,0.0,3.0,47,0.00,,,0.00,weatherlink.com 1.10,2013-11-03 20:21:00,
2013-11-03 15:36:00,57.8,39.0,30.24,NW,305,0.0,1.0,49,0.00,,,0.00,weatherlink.com 1.10,2013-11-03 20:36:00,
2013-11-03 15:51:00,57.6,38.0,30.25,WSW,239,0.0,1.0,49,0.00,,,0.00,weatherlink.com 1.10,2013-11-03 20:51:00,
2013-11-03 16:06:00,57.4,39.0,30.25,East,79,2.0,3.0,50,0.00,,,0.00,weatherlink.com 1.10,2013-11-03 21:06:00,
2013-11-03 16:21:00,57.1,38.0,30.25,WNW,299,1.0,2.0,49,0.00,,,0.00,weatherlink.com 1.10,2013-11-03 21:21:00,
2013-11-03 16:36:00,57.0,38.0,30.24,SE,141,1.0,3.0,50,0.00,,,0.00,weatherlink.com 1.10,2013-11-03 21:36:00,
2013-11-03 16:51:00,56.6,37.0,30.24,NE,36,1.0,5.0,49,0.00,,,0.00,weatherlink.com 1.10,2013-11-03 21:51:00,
2013-11-03 17:08:00,55.9,39.0,30.24,NNE,15,0.0,3.0,53,0.00,,,0.00,weatherlink.com 1.10,2013-11-03 22:08:00,
2013-11-03 17:21:00,54.8,39.0,30.24,NNE,16,0.0,1.0,56,0.00,,,0.00,weatherlink.com 1.10,2013-11-03 22:21:00,
2013-11-03 17:36:00,53.3,41.0,30.25,NNE,16,0.0,0.0,63,0.00,,,0.00,weatherlink.com 1.10,2013-11-03 22:36:00,
2013-11-03 17:51:00,51.3,41.0,30.25,NNE,16,0.0,0.0,68,0.00,,,0.00,weatherlink.com 1.10,2013-11-03 22:51:00,
2013-11-03 18:06:00,49.7,41.0,30.26,NNE,16,0.0,0.0,71,0.00,,,0.00,weatherlink.com 1.10,2013-11-03 23:06:00,
2013-11-03 18:21:00,48.2,40.0,30.26,NNE,16,0.0,0.0,74,0.00,,,0.00,weatherlink.com 1.10,2013-11-03 23:21:00,
2013-11-03 18:36:00,47.2,40.0,30.27,NNE,16,0.0,0.0,76,0.00,,,0.00,weatherlink.com 1.10,2013-11-03 23:36:00,
2013-11-03 18:51:00,46.4,40.0,30.27,NNE,16,0.0,0.0,78,0.00,,,0.00,weatherlink.com 1.10,2013-11-03 23:51:00,
2013-11-03 19:06:00,45.7,40.0,30.27,NNE,16,0.0,0.0,80,0.00,,,0.00,weatherlink.com 1.10,2013-11-04 00:06:00,
2013-11-03 19:21:00,44.9,40.0,30.27,NNE,16,0.0,0.0,83,0.00,,,0.00,weatherlink.com 1.10,2013-11-04 00:21:00,
2013-11-03 19:36:00,44.3,40.0,30.28,NNE,16,0.0,0.0,85,0.00,,,0.00,weatherlink.com 1.10,2013-11-04 00:36:00,
2013-11-03 19:51:00,43.8,39.0,30.27,NNE,14,0.0,0.0,84,0.00,,,0.00,weatherlink.com 1.10,2013-11-04 00:51:00,
2013-11-03 20:06:00,43.3,39.0,30.27,NNE,14,0.0,0.0,85,0.00,,,0.00,weatherlink.com 1.10,2013-11-04 01:06:00,
2013-11-03 20:21:00,42.9,39.0,30.27,NNE,13,0.0,0.0,86,0.00,,,0.00,weatherlink.com 1.10,2013-11-04 01:21:00,
2013-11-03 20:36:00,42.5,39.0,30.27,NNE,13,0.0,0.0,87,0.00,,,0.00,weatherlink.com 1.10,2013-11-04 01:36:00,
2013-11-03 20:53:00,42.3,39.0,30.28,NNE,13,0.0,0.0,87,0.00,,,0.00,weatherlink.com 1.10,2013-11-04 01:53:00,
2013-11-03 21:06:00,42.0,39.0,30.29,NNE,14,0.0,0.0,88,0.00,,,0.00,weatherlink.com 1.10,2013-11-04 02:06:00,
2013-11-03 21:21:00,41.7,38.0,30.30,NNE,14,0.0,0.0,88,0.00,,,0.00,weatherlink.com 1.10,2013-11-04 02:21:00,
2013-11-03 21:36:00,41.4,38.0,30.30,NNE,14,0.0,0.0,89,0.00,,,0.00,weatherlink.com 1.10,2013-11-04 02:36:00,
2013-11-03 21:51:00,41.1,38.0,30.30,NNE,14,0.0,0.0,89,0.00,,,0.00,weatherlink.com 1.10,2013-11-04 02:51:00,
2013-11-03 22:06:00,40.9,38.0,30.31,NNE,14,0.0,0.0,90,0.00,,,0.00,weatherlink.com 1.10,2013-11-04 03:06:00,
2013-11-03 22:21:00,41.0,38.0,30.32,NNE,14,0.0,0.0,90,0.00,,,0.00,weatherlink.com 1.10,2013-11-04 03:21:00,
2013-11-03 22:36:00,41.0,38.0,30.32,NNE,14,0.0,0.0,90,0.00,,,0.00,weatherlink.com 1.10,2013-11-04 03:36:00,
2013-11-03 22:51:00,40.9,39.0,30.32,NNE,13,0.0,0.0,91,0.00,,,0.00,weatherlink.com 1.10,2013-11-04 03:51:00,
2013-11-03 23:06:00,40.7,38.0,30.32,NNE,13,0.0,0.0,90,0.00,,,0.00,weatherlink.com 1.10,2013-11-04 04:06:00,
2013-11-03 23:21:00,40.6,38.0,30.33,NNE,14,0.0,0.0,91,0.00,,,0.00,weatherlink.com 1.10,2013-11-04 04:21:00,
2013-11-03 23:36:00,40.4,38.0,30.33,NNE,14,0.0,0.0,91,0.00,,,0.00,weatherlink.com 1.10,2013-11-04 04:36:00,
2013-11-03 23:51:00,40.4,38.0,30.33,NNE,14,0.0,0.0,90,0.00,,,0.00,weatherlink.com 1.10,2013-11-04 04:51:00,